Time;durP1;ratioP1;P1;durP2;ratioP2;P2;SDS_P1;SDS_P2;PMS_P1;PMS_P2;Temp;Humidity;BMP_temperature;BMP_pressure;BME280_temperature;BME280_humidity;BME280_pressure;Samples;Min_cycle;Max_cycle;Signal;HPM_P1;HPM_P2
2022/02/17 00:00:31;;;;;;;0.70;0.70;;;;;;;12.84;97.18;98481.00;5039787;28;20044;-90
2022/02/17 00:03:21;;;;;;;0.60;0.60;;;;;;;12.73;97.73;98484.59;5046257;28;20072;-92
2022/02/17 00:05:56;;;;;;;0.80;0.80;;;;;;;12.91;97.72;98498.06;5032996;28;20045;-93
2022/02/17 00:08:37;;;;;;;0.60;0.60;;;;;;;12.82;98.89;98494.41;5049482;28;20056;-93
2022/02/17 00:11:04;;;;;;;0.80;0.80;;;;;;;12.60;98.83;98452.91;5047946;28;20045;-92
2022/02/17 00:13:33;;;;;;;0.70;0.70;;;;;;;12.67;98.69;98479.78;5054877;28;20045;-91
2022/02/17 00:16:13;;;;;;;;;;;;;;;12.85;98.64;98482.69;5045329;28;20060;-92
2022/02/17 00:19:02;;;;;;;0.70;0.70;;;;;;;12.71;98.67;98481.22;5052741;28;19925;-92
2022/02/17 00:21:29;;;;;;;0.70;0.70;;;;;;;12.79;98.86;98476.06;5039464;28;20156;-92
2022/02/17 00:24:03;;;;;;;1.15;1.00;;;;;;;12.57;99.47;98470.94;5054738;28;20315;-92
2022/02/17 00:27:09;;;;;;;0.93;0.93;;;;;;;12.67;100.00;98457.72;5066980;28;20047;-93
2022/02/17 00:30:11;;;;;;;0.80;0.80;;;;;;;12.41;100.00;98428.09;5055791;28;20137;-94
2022/02/17 00:33:14;;;;;;;;;;;;;;;;;;;;;
2022/02/17 00:35:52;;;;;;;0.80;0.80;;;;;;;12.33;100.00;98402.19;5057797;28;20053;-92
2022/02/17 00:38:46;;;;;;;0.80;0.80;;;;;;;12.44;100.00;98431.31;4972224;28;20505;-94
2022/02/17 00:41:41;;;;;;;;;;;;;;;;;;;;;
2022/02/17 00:44:13;;;;;;;0.68;0.68;;;;;;;12.28;100.00;98444.19;4946970;28;20055;-92
2022/02/17 00:46:48;;;;;;;0.70;0.70;;;;;;;12.39;100.00;98448.63;4946828;28;20047;-93
2022/02/17 00:49:42;;;;;;;0.77;0.70;;;;;;;12.10;100.00;98411.28;4941017;28;20062;-93
2022/02/17 00:52:32;;;;;;;;;;;;;;;;;;;;;
2022/02/17 00:55:26;;;;;;;0.55;0.50;;;;;;;12.27;100.00;98416.84;4942482;28;20051;-92
2022/02/17 00:58:02;;;;;;;1.98;0.60;;;;;;;12.47;100.00;98451.44;5019297;28;20092;-92
2022/02/17 01:00:49;;;;;;;0.60;0.60;;;;;;;12.49;100.00;98437.06;5019549;28;20064;-92
2022/02/17 01:03:25;;;;;;;0.80;0.80;;;;;;;12.54;100.00;98432.22;5029678;28;20037;-92
2022/02/17 01:06:16;;;;;;;1.00;0.90;;;;;;;12.20;100.00;98410.38;5008080;28;20056;-94
2022/02/17 01:08:48;;;;;;;1.67;0.90;;;;;;;12.27;100.00;98395.63;5004940;28;20049;-93
2022/02/17 01:11:18;;;;;;;1.27;1.17;;;;;;;12.44;100.00;98410.06;5020056;28;20049;-94
2022/02/17 01:13:51;;;;;;;1.02;1.02;;;;;;;12.58;100.00;98440.75;5017484;28;20515;-90
2022/02/17 01:16:22;;;;;;;1.10;1.08;;;;;;;12.70;100.00;98447.66;5029133;28;20041;-91
2022/02/17 01:18:49;;;;;;;1.20;1.10;;;;;;;12.50;99.68;98400.75;5031540;28;20045;-91
2022/02/17 01:21:30;;;;;;;1.40;1.30;;;;;;;12.59;99.94;98434.47;5029964;28;20050;-94
2022/02/17 01:23:59;;;;;;;;;;;;;;;12.71;99.69;98454.66;5040231;28;20883;-92
2022/02/17 01:26:41;;;;;;;1.30;1.20;;;;;;;12.72;99.86;98444.88;5038497;28;19970;-92
2022/02/17 01:29:12;;;;;;;2.60;1.30;;;;;;;12.48;100.00;98431.88;5024770;28;20048;-94
2022/02/17 01:32:03;;;;;;;1.45;1.20;;;;;;;12.25;100.00;98421.44;5026580;28;20061;-91
2022/02/17 01:34:51;;;;;;;1.30;1.20;;;;;;;12.31;100.00;98430.69;5030684;28;20104;-91
2022/02/17 01:37:46;;;;;;;2.10;1.25;;;;;;;12.30;100.00;98460.84;5031763;28;20481;-93
2022/02/17 01:40:18;;;;;;;1.67;1.35;;;;;;;11.96;100.00;98412.47;5027791;28;20153;-93
2022/02/17 01:42:49;;;;;;;3.38;1.13;;;;;;;11.88;100.00;98406.94;5021157;28;20072;-92
2022/02/17 01:45:46;;;;;;;;;;;;;;;;;;;;;
2022/02/17 01:48:22;;;;;;;1.70;1.20;;;;;;;11.81;100.00;98413.72;5029073;28;20060;-94
2022/02/17 01:50:59;;;;;;;1.40;1.30;;;;;;;11.64;100.00;98398.34;5028958;28;20054;-94
2022/02/17 01:53:43;;;;;;;;;;;;;;;;;;;;;
2022/02/17 01:56:16;;;;;;;1.92;1.58;;;;;;;11.69;100.00;98414.69;5024173;28;20227;-93
2022/02/17 01:58:51;;;;;;;2.95;1.55;;;;;;;11.71;100.00;98433.97;5028587;28;20559;-95
2022/02/17 02:01:38;;;;;;;;;;;;;;;;;;;;;
2022/02/17 02:04:22;;;;;;;1.80;1.70;;;;;;;11.63;100.00;98417.88;5024202;28;20382;-93
2022/02/17 02:07:14;;;;;;;1.65;1.48;;;;;;;11.52;100.00;98392.25;5025487;28;20063;-95
2022/02/17 02:10:08;;;;;;;2.08;1.60;;;;;;;11.79;100.00;98455.44;5035149;28;20067;-92
2022/02/17 02:13:23;;;;;;;2.65;1.55;;;;;;;11.49;100.00;98419.03;5030092;28;20107;-94
2022/02/17 02:16:04;;;;;;;;;;;;;;;;;;;;;
2022/02/17 02:18:45;;;;;;;;;;;;;;;;;;;;;
2022/02/17 02:21:39;;;;;;;1.40;1.30;;;;;;;11.49;100.00;98416.38;5040695;28;20052;-93
2022/02/17 02:24:28;;;;;;;1.50;1.38;;;;;;;11.54;100.00;98419.47;5038997;28;20052;-92
2022/02/17 02:27:28;;;;;;;;;;;;;;;11.69;100.00;98471.22;5046567;28;20045;-92
2022/02/17 02:29:57;;;;;;;1.05;0.88;;;;;;;11.52;100.00;98421.41;5050268;28;19929;-90
2022/02/17 02:32:31;;;;;;;0.63;0.63;;;;;;;11.65;100.00;98432.66;5049841;28;20111;-92
2022/02/17 02:35:21;;;;;;;;;;;;;;;;;;;;;
2022/02/17 02:37:57;;;;;;;1.35;0.80;;;;;;;11.70;100.00;98464.13;5041911;28;20108;-92
2022/02/17 02:40:39;;;;;;;;;;;;;;;;;;;;;
2022/02/17 02:43:36;;;;;;;;;;;;;;;;;;;;;
2022/02/17 02:46:41;;;;;;;;;;;;;;;;;;;;;
2022/02/17 02:49:29;;;;;;;;;;;;;;;;;;;;;
2022/02/17 02:52:28;;;;;;;0.68;0.30;;;;;;;11.66;100.00;98446.75;5058343;28;20052;-91
2022/02/17 02:55:00;;;;;;;0.95;0.20;;;;;;;11.51;100.00;98428.50;5044313;28;20044;-93
2022/02/17 02:57:38;;;;;;;0.73;0.15;;;;;;;11.54;100.00;98438.84;5055253;28;20483;-95
2022/02/17 03:01:13;;;;;;;;;;;;;;;;;;;;;
2022/02/17 03:04:24;;;;;;;0.68;0.20;;;;;;;11.97;100.00;98493.69;5047804;28;20057;-92
2022/02/17 03:07:00;;;;;;;0.57;0.20;;;;;;;11.72;100.00;98448.91;5060595;28;20036;-94
2022/02/17 03:09:37;;;;;;;0.30;0.20;;;;;;;11.86;100.00;98472.53;5070348;28;20060;-94
2022/02/17 03:12:16;;;;;;;1.25;0.22;;;;;;;11.60;100.00;98445.47;5057943;28;20045;-93
2022/02/17 03:14:47;;;;;;;0.40;0.40;;;;;;;11.74;100.00;98457.59;5056993;28;20079;-94
2022/02/17 03:17:20;;;;;;;0.52;0.30;;;;;;;11.65;99.39;98463.66;5037921;28;20104;-93
2022/02/17 03:20:00;;;;;;;0.52;0.13;;;;;;;11.82;93.50;98502.91;5050224;28;20048;-94
2022/02/17 03:22:56;;;;;;;1.52;0.20;;;;;;;11.76;88.84;98504.28;5047920;28;20044;-93
2022/02/17 03:25:27;;;;;;;2.63;0.20;;;;;;;11.78;87.62;98526.22;5050259;28;20041;-92
2022/02/17 03:28:16;;;;;;;1.10;0.30;;;;;;;11.57;87.76;98498.75;5036269;28;20121;-92
2022/02/17 03:31:01;;;;;;;;;;;;;;;11.91;83.50;98558.72;5055004;28;20051;-93
2022/02/17 03:33:35;;;;;;;1.52;0.60;;;;;;;12.00;80.09;98524.44;5034359;28;19960;-92
2022/02/17 03:36:39;;;;;;;2.08;0.38;;;;;;;11.86;74.55;98497.22;5058911;28;20133;-92
2022/02/17 03:39:10;;;;;;;1.63;0.50;;;;;;;12.16;73.99;98528.34;5050324;28;20080;-92
2022/02/17 03:42:04;;;;;;;;;;;;;;;;;;;;;
2022/02/17 03:44:59;;;;;;;4.43;0.47;;;;;;;12.44;65.72;98516.25;4990869;28;20081;-94
2022/02/17 03:47:28;;;;;;;6.85;1.05;;;;;;;12.64;54.75;98496.81;4989975;28;20043;-91
2022/02/17 03:50:16;;;;;;;4.03;0.60;;;;;;;12.75;53.90;98543.69;4983049;28;20104;-93
2022/02/17 03:52:46;;;;;;;3.63;1.00;;;;;;;12.78;53.83;98551.41;4987707;28;20113;-91
2022/02/17 03:55:32;;;;;;;3.65;0.80;;;;;;;12.77;54.26;98584.25;4983556;28;20046;-91
2022/02/17 04:01:13;;;;;;;4.03;0.73;;;;;;;12.70;56.64;98564.50;5019161;28;20132;-92
2022/02/17 04:04:01;;;;;;;5.00;0.80;;;;;;;12.93;56.34;98621.84;5049739;28;20057;-90
2022/02/17 04:06:37;;;;;;;4.70;0.88;;;;;;;12.71;57.42;98602.53;5052039;28;20067;-92
2022/02/17 04:09:27;;;;;;;4.80;0.65;;;;;;;12.70;57.60;98607.00;5055920;28;20515;-91
2022/02/17 04:12:06;;;;;;;4.55;0.95;;;;;;;12.67;58.62;98620.53;5056018;28;20522;-92
2022/02/17 04:14:59;;;;;;;3.75;0.82;;;;;;;12.87;58.56;98664.03;5008005;28;20060;-92
2022/02/17 04:17:37;;;;;;;4.38;0.70;;;;;;;12.56;59.06;98661.28;5023982;28;20395;-94
2022/02/17 04:20:15;;;;;;;4.38;0.95;;;;;;;12.48;55.78;98625.69;5023727;28;20169;-92
2022/02/17 04:23:10;;;;;;;5.53;0.75;;;;;;;12.51;55.03;98638.72;5012777;28;20057;-90
2022/02/17 04:25:45;;;;;;;6.10;1.02;;;;;;;12.33;56.19;98661.47;5013661;28;20053;-91
2022/02/17 04:28:14;;;;;;;6.70;1.20;;;;;;;12.57;51.82;98691.31;5010323;28;20049;-91
2022/02/17 04:31:03;;;;;;;8.32;1.65;;;;;;;12.32;50.94;98667.72;5012730;28;20137;-90
2022/02/17 04:33:36;;;;;;;7.70;1.73;;;;;;;12.24;50.67;98655.09;4990712;28;20054;-90
2022/02/17 04:36:09;;;;;;;8.65;1.67;;;;;;;12.25;49.55;98662.09;5016898;28;20053;-91
2022/02/17 04:39:00;;;;;;;7.40;1.55;;;;;;;12.51;51.22;98727.16;5043600;28;20048;-91
2022/02/17 04:44:44;;;;;;;6.32;1.33;;;;;;;12.23;54.71;98707.34;5031389;28;20048;-91
2022/02/17 04:47:37;;;;;;;9.30;1.60;;;;;;;12.20;52.29;98731.47;5045134;28;20099;-92
2022/02/17 04:50:06;;;;;;;13.43;1.70;;;;;;;11.96;51.21;98706.03;5051991;28;20061;-91
2022/02/17 04:52:34;;;;;;;10.73;2.08;;;;;;;12.22;49.95;98740.13;5049995;28;20554;-91
2022/02/17 04:55:03;;;;;;;11.73;1.70;;;;;;;12.00;50.30;98734.00;5057121;28;20069;-91
2022/02/17 04:57:33;;;;;;;9.00;1.98;;;;;;;11.96;50.37;98773.22;5048894;28;20045;-91
2022/02/17 05:00:06;;;;;;;13.57;2.33;;;;;;;12.07;49.50;98773.19;5050146;28;20053;-92
2022/02/17 05:02:36;;;;;;;7.70;1.73;;;;;;;11.97;48.81;98748.34;5045666;28;20119;-90
2022/02/17 05:05:05;;;;;;;13.02;2.17;;;;;;;12.08;47.77;98745.69;5050791;28;20045;-90
2022/02/17 05:07:56;;;;;;;10.07;2.13;;;;;;;12.00;48.71;98752.56;5055204;28;20049;-92
2022/02/17 05:10:51;;;;;;;;;;;;;;;;;;;;;
2022/02/17 05:13:33;;;;;;;5.80;1.77;;;;;;;11.86;50.03;98756.31;5045258;28;20044;-90
2022/02/17 05:16:46;;;;;;;8.07;1.80;;;;;;;11.93;50.75;98784.91;5048726;28;20128;-93
2022/02/17 05:19:27;;;;;;;11.38;1.85;;;;;;;11.82;51.10;98761.00;4966192;28;20101;-91
2022/02/17 05:21:58;;;;;;;11.35;2.15;;;;;;;11.86;50.71;98806.69;4966370;28;20066;-95
2022/02/17 05:24:28;;;;;;;14.73;2.08;;;;;;;11.57;51.37;98755.88;4974423;28;20078;-93
2022/02/17 05:27:01;;;;;;;13.65;2.38;;;;;;;11.67;51.61;98775.41;4969406;28;20476;-92
2022/02/17 05:29:33;;;;;;;11.73;2.72;;;;;;;11.60;51.49;98796.28;4954247;28;20054;-91
2022/02/17 05:32:17;;;;;;;;;;;;;;;11.81;51.37;98819.47;4961962;28;20046;-95
2022/02/17 05:34:44;;;;;;;10.38;2.10;;;;;;;11.59;51.37;98794.56;4968395;28;19926;-92
2022/02/17 05:37:12;;;;;;;13.18;2.38;;;;;;;11.76;50.89;98819.00;4964905;28;20050;-90
2022/02/17 05:39:43;;;;;;;14.57;2.35;;;;;;;11.58;50.68;98850.38;4971283;28;20104;-92
2022/02/17 05:42:16;;;;;;;10.25;2.00;;;;;;;11.78;50.57;98830.31;4968693;28;20054;-92
2022/02/17 05:44:55;;;;;;;;;;;;;;;;;;;;;
2022/02/17 05:47:31;;;;;;;12.88;2.40;;;;;;;11.40;50.89;98807.53;4978659;28;20047;-92
2022/02/17 05:50:05;;;;;;;11.15;2.50;;;;;;;11.39;51.45;98800.53;4972394;28;20132;-93
2022/02/17 05:52:37;;;;;;;16.08;3.05;;;;;;;11.35;51.39;98822.91;4965193;28;20600;-92
2022/02/17 05:55:23;;;;;;;11.55;2.60;;;;;;;11.73;50.77;98862.47;4965215;28;20050;-92
2022/02/17 05:57:55;;;;;;;14.50;2.53;;;;;;;11.54;51.72;98848.91;5042773;28;20051;-92
2022/02/17 06:00:51;;;;;;;17.08;2.60;;;;;;;11.34;51.25;98825.69;5039098;28;20049;-93
2022/02/17 06:03:45;;;;;;;11.60;2.33;;;;;;;11.55;51.30;98866.50;5033582;28;20053;-96
2022/02/17 06:06:27;;;;;;;14.35;2.53;;;;;;;11.31;51.26;98824.13;5059909;28;20084;-96
2022/02/17 06:08:55;;;;;;;16.85;2.83;;;;;;;11.60;51.71;98897.00;5032788;28;20049;-92
2022/02/17 06:11:45;;;;;;;16.35;2.60;;;;;;;11.36;51.72;98850.28;5055232;28;20072;-92
2022/02/17 06:14:23;;;;;;;16.33;2.78;;;;;;;11.21;52.01;98833.72;5043045;28;20103;-93
2022/02/17 06:16:55;;;;;;;16.30;2.80;;;;;;;11.36;52.95;98898.81;5049597;28;20140;-92
2022/02/17 06:19:36;;;;;;;20.52;3.22;;;;;;;11.17;52.39;98856.13;5048671;28;20053;-92
2022/02/17 06:22:18;;;;;;;25.27;3.45;;;;;;;11.19;53.13;98859.47;5048968;28;20048;-92
2022/02/17 06:24:56;;;;;;;10.98;2.28;;;;;;;11.28;52.91;98895.06;5049293;28;20131;-94
2022/02/17 06:27:29;;;;;;;16.30;2.53;;;;;;;11.24;53.92;98889.97;5054359;28;20593;-93
2022/02/17 06:30:11;;;;;;;13.68;2.95;;;;;;;11.00;53.36;98872.41;5046817;28;20049;-93
2022/02/17 06:33:07;;;;;;;15.80;2.60;;;;;;;11.29;53.25;98944.44;5051980;28;20056;-94
2022/02/17 06:35:43;;;;;;;16.50;3.58;;;;;;;11.07;53.25;98902.75;5052859;28;20827;-94
2022/02/17 06:38:29;;;;;;;18.05;3.40;;;;;;;10.99;53.98;98892.75;5053590;28;20053;-93
2022/02/17 06:41:17;;;;;;;16.73;3.13;;;;;;;11.18;54.20;98955.81;5028855;28;20053;-92
2022/02/17 06:43:52;;;;;;;18.70;3.45;;;;;;;11.00;54.27;98925.38;5043567;28;20311;-93
2022/02/17 06:46:36;;;;;;;13.38;3.10;;;;;;;11.03;54.61;98917.19;5044595;28;20049;-92
2022/02/17 06:49:20;;;;;;;18.23;2.60;;;;;;;11.17;54.66;98965.59;5045809;28;20059;-93
2022/02/17 06:52:10;;;;;;;23.50;3.40;;;;;;;10.95;54.68;98941.59;5047795;28;20144;-96
2022/02/17 06:58:26;;;;;;;19.77;3.25;;;;;;;11.11;54.68;98957.22;5062797;28;20044;-93
2022/02/17 07:01:17;;;;;;;14.32;2.72;;;;;;;11.13;54.39;98953.50;5052741;28;20040;-93
2022/02/17 07:04:00;;;;;;;19.75;3.42;;;;;;;10.86;55.47;98947.56;5052036;28;20128;-94
2022/02/17 07:06:33;;;;;;;21.35;2.92;;;;;;;11.03;55.36;98986.91;5054741;28;20051;-93
2022/02/17 07:09:05;;;;;;;14.38;2.58;;;;;;;10.90;54.95;98951.66;5055575;28;20049;-91
2022/02/17 07:11:41;;;;;;;16.30;3.33;;;;;;;10.94;55.42;98979.63;5055116;28;20047;-88
2022/02/17 07:14:10;;;;;;;20.27;4.28;;;;;;;10.90;55.99;98981.63;5051175;28;20458;-90
2022/02/17 07:16:39;;;;;;;17.92;3.67;;;;;;;10.84;55.57;98965.34;5062677;28;20053;-91
2022/02/17 07:19:08;;;;;;;13.73;2.83;;;;;;;11.12;55.55;99036.59;5048263;28;20040;-90
2022/02/17 07:21:37;;;;;;;17.10;3.23;;;;;;;10.94;56.85;99037.88;5048485;28;20756;-90
2022/02/17 07:24:08;;;;;;;15.95;3.33;;;;;;;10.78;60.12;99022.22;5044484;28;20041;-92
2022/02/17 07:26:36;;;;;;;20.13;3.50;;;;;;;10.21;61.96;99029.69;5056794;28;20067;-91
2022/02/17 07:29:22;;;;;;;12.65;2.60;;;;;;;10.27;62.37;99042.50;5058294;28;20045;-90
2022/02/17 07:32:09;;;;;;;16.48;3.05;;;;;;;10.00;63.42;99047.81;5050779;28;20045;-90
2022/02/17 07:34:37;;;;;;;11.02;2.15;;;;;;;9.96;65.01;99059.53;5045710;28;20087;-91
2022/02/17 07:37:19;;;;;;;13.93;2.75;;;;;;;9.54;65.97;99002.38;5059131;28;20056;-89
2022/02/17 07:39:54;;;;;;;13.50;2.88;;;;;;;9.89;67.52;99082.03;5060169;28;20053;-90
2022/02/17 07:42:21;;;;;;;17.58;3.03;;;;;;;9.74;67.59;99053.97;5055030;28;20063;-92
2022/02/17 07:44:56;;;;;;;23.55;3.88;;;;;;;9.85;66.75;99085.81;5038539;28;20095;-93
2022/02/17 07:47:29;;;;;;;16.08;3.05;;;;;;;9.70;66.47;99063.88;5055453;28;20048;-91
2022/02/17 07:50:14;;;;;;;15.70;3.05;;;;;;;9.88;67.42;99114.72;5039582;28;20045;-92
2022/02/17 07:53:10;;;;;;;14.43;3.05;;;;;;;9.81;68.37;99110.75;5035190;28;20059;-92
2022/02/17 07:55:46;;;;;;;17.42;3.10;;;;;;;9.24;69.77;99036.88;5053622;28;20096;-91
2022/02/17 07:58:17;;;;;;;18.40;3.05;;;;;;;9.21;69.62;99067.94;5053791;28;20056;-90
2022/02/17 08:01:01;;;;;;;17.50;2.70;;;;;;;9.69;68.24;99114.19;5036536;28;20392;-91
2022/02/17 08:03:50;;;;;;;18.98;3.45;;;;;;;9.68;68.12;99096.63;5051603;28;20048;-91
2022/02/17 08:06:43;;;;;;;;;;;;;;;10.01;66.34;99115.63;5058369;28;20044;-92
2022/02/17 08:10:00;;;;;;;;;;;;;;;;;;;;;
2022/02/17 08:12:50;;;;;;;20.38;3.38;;;;;;;9.91;64.71;99050.22;5056274;28;20048;-90
2022/02/17 08:15:28;;;;;;;21.27;4.15;;;;;;;10.15;64.13;99099.69;5037586;28;20045;-90
2022/02/17 08:18:22;;;;;;;20.83;3.72;;;;;;;10.28;63.69;99101.56;5045695;28;20045;-92
2022/02/17 08:20:52;;;;;;;21.15;3.83;;;;;;;10.40;63.39;99112.16;5069050;28;20109;-91
2022/02/17 08:23:55;;;;;;;19.52;3.28;;;;;;;10.37;61.70;99156.53;5053435;28;20051;-94
2022/02/17 08:26:34;;;;;;;17.83;3.03;;;;;;;10.38;62.57;99155.59;5052129;28;20127;-91
2022/02/17 08:29:12;;;;;;;14.02;2.20;;;;;;;10.07;62.06;99098.50;5055138;28;20080;-91
2022/02/17 08:31:56;;;;;;;;;;;;;;;;;;;;;
2022/02/17 08:34:56;;;;;;;;;;;;;;;;;;;;;
2022/02/17 08:40:56;;;;;;;22.10;3.80;;;;;;;10.79;61.32;99161.59;5061551;28;20057;-91
2022/02/17 08:43:59;;;;;;;14.20;2.72;;;;;;;11.05;59.59;99210.16;5055870;28;20085;-94
2022/02/17 08:46:51;;;;;;;11.77;2.28;;;;;;;11.24;58.62;99223.00;5053166;28;20059;-95
2022/02/17 08:50:11;;;;;;;;;;;;;;;;;;;;;
2022/02/17 08:53:10;;;;;;;19.40;2.95;;;;;;;10.51;62.33;99220.84;4972127;28;20594;-93
2022/02/17 08:59:46;;;;;;;20.23;3.25;;;;;;;10.84;61.02;99219.56;5055897;28;20044;-94
2022/02/17 09:02:42;;;;;;;24.38;3.20;;;;;;;10.76;59.21;99175.03;4984778;28;20046;-95
2022/02/17 09:09:48;;;;;;;18.40;4.20;;;;;;;11.33;59.01;99238.31;4970190;28;20461;-94
2022/02/17 09:16:31;;;;;;;21.48;4.45;;;;;;;11.54;57.54;99230.66;4985894;28;20097;-91
2022/02/17 09:19:25;;;;;;;20.58;3.60;;;;;;;11.81;56.65;99259.72;4991021;28;20054;-91
2022/02/17 09:23:01;;;;;;;;;;;;;;;;;;;;;
2022/02/17 09:26:10;;;;;;;22.25;4.18;;;;;;;11.72;55.55;99244.44;4987332;28;20054;-93
2022/02/17 09:28:41;;;;;;;16.08;3.03;;;;;;;11.60;55.88;99240.84;4984841;28;20047;-93
2022/02/17 09:31:23;;;;;;;17.17;3.28;;;;;;;11.63;54.30;99253.91;4976662;28;20134;-92
2022/02/17 09:33:59;;;;;;;23.70;3.83;;;;;;;11.28;54.08;99229.81;4987363;28;20098;-93
2022/02/17 09:36:34;;;;;;;17.27;3.40;;;;;;;11.67;54.13;99278.38;4974070;28;20039;-92
2022/02/17 09:39:34;;;;;;;21.38;3.50;;;;;;;11.57;52.91;99270.22;5003271;28;20190;-91
2022/02/17 09:42:54;;;;;;;20.30;4.28;;;;;;;11.38;52.96;99225.56;5028073;28;20116;-96
2022/02/17 09:45:59;;;;;;;;;;;;;;;;;;;;;
2022/02/17 09:49:00;;;;;;;;;;;;;;;;;;;;;
2022/02/17 09:51:54;;;;;;;19.35;3.70;;;;;;;12.42;49.26;99301.38;5059777;28;20044;-92
2022/02/17 09:54:24;;;;;;;10.90;2.80;;;;;;;12.45;48.39;99257.78;5050905;28;20063;-92
2022/02/17 09:57:32;;;;;;;;;;;;;;;;;;;;;
2022/02/17 10:00:27;;;;;;;22.10;3.63;;;;;;;12.85;47.15;99258.38;5012355;28;20096;-95
2022/02/17 10:26:27;;;;;;;17.90;3.45;;;;;;;14.27;39.71;99365.41;5020764;28;20084;-90
2022/02/17 10:29:23;;;;;;;10.98;2.83;;;;;;;14.31;39.74;99370.41;5017006;28;20181;-92
2022/02/17 10:32:05;;;;;;;13.90;2.70;;;;;;;14.56;39.19;99332.03;5006608;28;20073;-92
2022/02/17 10:34:47;;;;;;;12.40;2.67;;;;;;;14.33;41.88;99335.63;5020339;28;20797;-90
2022/02/17 10:37:51;;;;;;;14.85;3.40;;;;;;;14.72;38.38;99350.28;4962363;28;20055;-93
2022/02/17 10:40:37;;;;;;;10.07;2.42;;;;;;;14.76;38.37;99341.09;4960547;28;20134;-92
2022/02/17 10:43:32;;;;;;;13.90;3.13;;;;;;;14.76;39.10;99333.09;4947702;28;20152;-92
2022/02/17 10:46:37;;;;;;;16.15;3.80;;;;;;;13.98;40.64;99319.78;4955052;28;20150;-90
2022/02/17 10:49:15;;;;;;;18.90;3.92;;;;;;;13.28;42.28;99359.72;4964084;28;20125;-92
2022/02/17 10:52:00;;;;;;;12.18;3.75;;;;;;;13.28;42.79;99323.34;4957845;28;20062;-94
2022/02/17 10:54:32;;;;;;;16.43;3.70;;;;;;;13.80;42.56;99375.28;4922789;29;20622;-93
2022/02/17 10:57:27;;;;;;;15.05;3.50;;;;;;;13.52;42.81;99349.91;4951647;28;21187;-92
2022/02/17 11:00:41;;;;;;;17.15;3.33;;;;;;;13.65;43.17;99324.06;4950196;28;20067;-92
2022/02/17 11:03:33;;;;;;;15.38;3.28;;;;;;;13.52;42.79;99367.69;4956443;28;20058;-91
2022/02/17 11:06:15;;;;;;;16.08;3.08;;;;;;;13.63;41.94;99432.41;4956203;28;20054;-91
2022/02/17 11:08:57;;;;;;;16.55;3.20;;;;;;;13.15;42.85;99373.06;4992867;28;20717;-91
2022/02/17 11:11:31;;;;;;;16.27;3.15;;;;;;;13.16;43.19;99387.22;4991901;28;20050;-90
2022/02/17 11:14:01;;;;;;;14.40;3.20;;;;;;;13.42;42.28;99460.59;5011527;28;20156;-92
2022/02/17 11:16:46;;;;;;;13.50;2.85;;;;;;;13.15;41.36;99380.19;5005483;28;20056;-93
2022/02/17 11:19:28;;;;;;;13.85;2.95;;;;;;;13.16;41.26;99379.25;5014228;28;20049;-93
2022/02/17 11:22:31;;;;;;;;;;;;;;;13.42;39.42;99454.41;5007535;28;20050;-92
2022/02/17 11:25:10;;;;;;;12.45;2.40;;;;;;;12.89;39.45;99377.63;5013446;28;20007;-93
2022/02/17 11:31:33;;;;;;;12.85;2.92;;;;;;;12.56;43.35;99386.19;5269809;23;20057;-93
2022/02/17 11:34:38;;;;;;;13.82;3.53;;;;;;;12.41;45.08;99383.78;4952447;28;20058;-94
2022/02/17 11:38:04;;;;;;;15.75;3.38;;;;;;;12.92;45.08;99382.69;4966112;28;20055;-95
2022/02/17 11:41:36;;;;;;;18.30;3.47;;;;;;;13.81;43.51;99430.19;4976095;28;20109;-95
2022/02/17 11:44:24;;;;;;;11.73;2.85;;;;;;;14.05;41.07;99417.66;4938261;28;20518;-94
2022/02/17 11:56:58;;;;;;;15.68;2.92;;;;;;;12.66;43.70;99452.78;5980112;23;20004;-95
2022/02/17 11:59:50;;;;;;;18.13;3.40;;;;;;;12.14;45.67;99424.53;4996295;28;20046;-93
2022/02/17 12:02:45;;;;;;;15.80;3.22;;;;;;;12.03;46.73;99450.97;4992204;28;20096;-90
2022/02/17 12:05:28;;;;;;;12.98;3.00;;;;;;;11.73;47.01;99443.25;4986866;28;20049;-93
2022/02/17 12:08:29;;;;;;;15.27;2.80;;;;;;;11.38;47.44;99416.41;4990970;28;20042;-93
2022/02/17 12:11:43;;;;;;;14.07;3.05;;;;;;;11.79;46.59;99471.19;5001667;28;20081;-93
2022/02/17 12:14:26;;;;;;;;;;;;;;;12.01;46.56;99484.72;4952118;29;20051;-93
2022/02/17 12:17:38;;;;;;;11.35;2.67;;;;;;;12.21;46.04;99497.50;4953168;29;19966;-93
2022/02/17 12:20:34;;;;;;;10.98;2.70;;;;;;;12.23;43.50;99452.28;4949436;29;20134;-94
2022/02/17 12:23:10;;;;;;;12.68;2.35;;;;;;;12.06;43.41;99440.16;4932443;29;20146;-93
2022/02/17 12:25:43;;;;;;;11.33;2.43;;;;;;;12.37;42.51;99513.22;4943867;29;20055;-92
2022/02/17 12:28:33;;;;;;;10.40;2.17;;;;;;;12.06;43.24;99490.56;4936235;29;20486;-91
2022/02/17 12:31:04;;;;;;;12.80;2.63;;;;;;;11.98;42.73;99506.13;4938897;29;20080;-93
2022/02/17 12:33:40;;;;;;;11.07;2.90;;;;;;;12.07;43.13;99513.50;5001091;28;20038;-93
2022/02/17 12:36:13;;;;;;;14.30;2.63;;;;;;;11.84;44.69;99535.38;4986038;28;20064;-91
2022/02/17 12:38:40;;;;;;;18.02;3.00;;;;;;;11.27;49.55;99509.03;5000105;28;20165;-92
2022/02/17 12:41:12;;;;;;;15.93;2.95;;;;;;;10.40;54.16;99563.84;4999853;28;20483;-94
2022/02/17 12:43:46;;;;;;;12.35;2.67;;;;;;;9.68;56.47;99531.00;4978136;28;20085;-93
2022/02/17 12:46:16;;;;;;;16.15;2.92;;;;;;;8.93;62.57;99497.34;4978745;28;20046;-92
2022/02/17 12:48:44;;;;;;;10.50;2.25;;;;;;;8.78;62.49;99553.63;4985244;28;20046;-92
2022/02/17 12:51:37;;;;;;;15.02;2.80;;;;;;;8.46;66.77;99579.03;4992650;28;20047;-94
2022/02/17 12:54:15;;;;;;;16.38;3.03;;;;;;;8.06;75.97;99583.63;4981312;28;20473;-93
2022/02/17 12:57:16;;;;;;;17.13;2.70;;;;;;;8.03;77.92;99577.66;4978442;28;20157;-94
2022/02/17 13:00:11;;;;;;;16.13;2.72;;;;;;;7.61;84.95;99586.72;4962620;28;20391;-93
2022/02/17 13:02:41;;;;;;;14.20;2.95;;;;;;;7.67;86.54;99597.00;4964583;28;20047;-94
2022/02/17 13:05:08;;;;;;;17.17;2.83;;;;;;;7.75;87.63;99593.97;4964520;28;20050;-94
2022/02/17 13:07:40;;;;;;;12.27;2.45;;;;;;;7.92;86.34;99607.19;4974816;28;20162;-95
2022/02/17 13:10:29;;;;;;;;;;;;;;;;;;;;;
2022/02/17 13:13:09;;;;;;;10.55;2.47;;;;;;;8.17;86.56;99606.88;4989479;28;20093;-94
2022/02/17 13:15:36;;;;;;;16.50;2.25;;;;;;;8.25;83.57;99574.81;4978133;28;20037;-93
2022/02/17 13:18:08;;;;;;;13.10;2.47;;;;;;;8.51;80.04;99547.13;4974939;28;20050;-94
2022/02/17 13:20:37;;;;;;;13.70;2.97;;;;;;;8.87;80.90;99568.09;4972489;28;20074;-94
2022/02/17 13:23:16;;;;;;;13.65;2.47;;;;;;;9.79;76.64;99556.81;4976461;28;20047;-94
2022/02/17 13:25:43;;;;;;;13.10;2.53;;;;;;;10.29;74.23;99539.84;4972683;28;20105;-94
2022/02/17 13:28:13;;;;;;;9.35;1.98;;;;;;;10.39;73.42;99578.88;4978074;28;20059;-94
2022/02/17 13:30:46;;;;;;;8.65;1.40;;;;;;;10.06;69.36;99538.53;4979199;28;20051;-95
2022/02/17 13:33:21;;;;;;;7.70;1.25;;;;;;;9.63;72.38;99561.25;4981140;28;20121;-95
2022/02/17 13:35:57;;;;;;;7.95;1.33;;;;;;;10.36;68.92;99546.47;4967042;28;20054;-95
2022/02/17 13:38:35;;;;;;;6.85;1.48;;;;;;;10.86;67.32;99562.78;4970560;28;20053;-95
2022/02/17 13:41:13;;;;;;;6.55;1.60;;;;;;;10.68;66.76;99541.91;4975815;28;20146;-96
2022/02/17 13:43:48;;;;;;;8.38;1.70;;;;;;;10.73;67.14;99547.75;4978913;28;20060;-96
2022/02/17 13:46:20;;;;;;;6.43;1.48;;;;;;;11.43;67.11;99552.16;4951241;28;20700;-94
2022/02/17 13:49:13;;;;;;;9.85;1.30;;;;;;;12.08;58.10;99570.09;4974868;28;20057;-95
2022/02/17 13:51:45;;;;;;;6.22;1.15;;;;;;;12.31;57.02;99561.41;4970712;28;20047;-94
2022/02/17 13:54:57;;;;;;;6.47;1.30;;;;;;;12.46;52.76;99538.28;4963036;28;20057;-94
2022/02/17 13:57:27;;;;;;;7.43;1.10;;;;;;;12.37;53.04;99566.34;4973522;28;20069;-95
2022/02/17 14:00:09;;;;;;;5.85;1.02;;;;;;;12.19;53.08;99546.31;4963835;28;20053;-95
2022/02/17 14:02:40;;;;;;;8.10;1.75;;;;;;;12.06;54.44;99556.91;4990648;28;20073;-95
2022/02/17 14:05:08;;;;;;;7.40;1.67;;;;;;;11.93;55.10;99577.25;4976304;28;20097;-95
2022/02/17 14:07:40;;;;;;;8.88;1.52;;;;;;;11.55;56.55;99530.16;4970557;28;20097;-94
2022/02/17 14:10:09;;;;;;;5.50;1.58;;;;;;;11.48;56.45;99520.91;4978609;28;20069;-92
2022/02/17 14:12:42;;;;;;;8.98;1.60;;;;;;;11.17;57.00;99534.41;4980034;28;20050;-92
2022/02/17 14:15:15;;;;;;;7.78;1.88;;;;;;;10.73;58.55;99526.56;4976593;28;20055;-93
2022/02/17 14:17:53;;;;;;;;;;;;;;;;;;;;;
2022/02/17 14:20:28;;;;;;;9.32;1.80;;;;;;;10.63;59.12;99559.84;4984976;28;20061;-93
2022/02/17 14:23:11;;;;;;;10.18;2.10;;;;;;;10.83;59.65;99584.19;4967146;28;20101;-93